createdAt,value
2018-07-07T13:49:39.595Z,1.73
2018-07-07T13:52:07.766Z,1.80
2018-07-07T13:54:35.870Z,1.97
2018-07-07T13:57:04.026Z,1.93
2018-07-07T13:59:32.062Z,1.60
2018-07-07T14:02:00.146Z,1.70
2018-07-07T14:04:28.311Z,1.50
2018-07-07T14:06:56.364Z,1.60
2018-07-07T14:09:24.402Z,1.77
2018-07-07T14:11:52.655Z,1.80
2018-07-07T14:14:20.712Z,1.53
2018-07-07T14:16:48.869Z,1.70
2018-07-07T14:19:16.900Z,1.70
2018-07-07T14:21:44.923Z,1.73
2018-07-07T14:24:12.980Z,1.80
2018-07-07T14:26:41.161Z,1.77
2018-07-07T14:29:09.159Z,1.67
2018-07-07T14:31:37.243Z,1.80
2018-07-07T14:34:05.284Z,1.93
2018-07-07T14:36:33.538Z,2.17
2018-07-07T14:39:01.544Z,2.33
2018-07-07T14:41:29.547Z,1.50
2018-07-07T14:44:00.687Z,1.90
2018-07-07T14:46:29.233Z,2.00
2018-07-07T14:48:57.438Z,1.97
2018-07-07T14:51:25.469Z,1.93
2018-07-07T14:53:53.780Z,1.90
2018-07-07T14:56:22.400Z,1.90
2018-07-07T14:58:50.886Z,3.23
2018-07-07T15:01:19.059Z,3.27
2018-07-07T15:03:47.058Z,2.03
2018-07-07T15:06:15.146Z,1.90
2018-07-07T15:08:43.254Z,2.00
2018-07-07T15:11:11.619Z,1.90
2018-07-07T15:13:39.711Z,1.80
2018-07-07T15:16:07.825Z,2.00
2018-07-07T15:18:36.480Z,2.23
2018-07-07T15:21:04.835Z,2.10
2018-07-07T15:23:33.045Z,1.70
2018-07-07T15:26:01.641Z,2.00
2018-07-07T15:28:29.592Z,1.90
2018-07-07T15:30:57.689Z,1.80
2018-07-07T15:33:25.806Z,1.97
2018-07-07T15:35:53.835Z,2.27
2018-07-07T15:38:21.843Z,2.03
2018-07-07T15:40:49.863Z,1.90
2018-07-07T15:43:17.830Z,1.80
2018-07-07T15:45:45.816Z,2.20
2018-07-07T15:48:14.117Z,1.80
2018-07-07T15:50:42.435Z,2.10
2018-07-07T15:53:10.472Z,2.10
2018-07-07T15:55:38.530Z,1.97
2018-07-07T15:58:06.588Z,2.07
2018-07-07T16:00:34.595Z,2.03
2018-07-07T16:03:02.569Z,2.17
2018-07-07T16:05:30.648Z,1.80
2018-07-07T16:07:58.733Z,2.20
2018-07-07T16:10:26.823Z,2.13
2018-07-07T16:12:54.883Z,1.93
2018-07-07T16:15:22.996Z,2.17
2018-07-07T16:17:51.100Z,2.40
2018-07-07T16:20:19.326Z,2.07
2018-07-07T16:22:47.392Z,2.03
2018-07-07T16:25:15.542Z,1.97
2018-07-07T16:27:43.537Z,2.10
2018-07-07T16:30:11.842Z,2.10
2018-07-07T16:32:39.923Z,2.17
2018-07-07T16:35:08.643Z,2.33
2018-07-07T16:37:36.706Z,2.37
2018-07-07T16:40:04.841Z,2.70
2018-07-07T16:42:33.763Z,2.50
2018-07-07T16:45:01.884Z,2.53
2018-07-07T16:47:29.889Z,3.50
2018-07-07T16:49:57.995Z,2.50
2018-07-07T16:52:26.168Z,2.63
2018-07-07T16:54:54.205Z,2.43
2018-07-07T16:57:22.248Z,2.10
2018-07-07T16:59:50.310Z,2.80
2018-07-07T17:02:19.302Z,2.50
2018-07-07T17:04:47.446Z,2.40
2018-07-07T17:07:15.454Z,2.17
2018-07-07T17:09:43.892Z,2.60
2018-07-07T17:12:12.012Z,2.90
2018-07-07T17:14:40.146Z,3.33
2018-07-07T17:17:08.339Z,3.00
2018-07-07T17:19:36.394Z,2.93
2018-07-07T17:22:04.451Z,3.00
2018-07-07T17:24:32.696Z,3.00
2018-07-07T17:27:00.994Z,2.60
2018-07-07T17:29:29.074Z,3.30
2018-07-07T17:31:57.503Z,2.53
2018-07-07T17:34:25.741Z,3.10
2018-07-07T17:36:53.911Z,3.23
2018-07-07T17:39:22.116Z,2.07
2018-07-07T17:41:50.224Z,3.80
2018-07-07T17:44:18.384Z,2.87
2018-07-07T17:46:46.507Z,2.63
2018-07-07T17:49:15.056Z,2.90
2018-07-07T17:51:43.118Z,2.80
2018-07-07T17:54:11.238Z,2.60
2018-07-07T17:56:39.848Z,3.37
2018-07-07T17:59:08.520Z,2.37
2018-07-07T18:01:36.563Z,2.70
2018-07-07T18:04:04.658Z,2.80
2018-07-07T18:06:32.615Z,2.30
2018-07-07T18:09:00.671Z,2.40
2018-07-07T18:11:28.793Z,2.60
2018-07-07T18:13:56.778Z,2.87
2018-07-07T18:16:24.857Z,2.90
2018-07-07T18:18:52.888Z,2.63
2018-07-07T18:21:20.994Z,2.80
2018-07-07T18:23:49.088Z,3.20
2018-07-07T18:26:18.037Z,2.77
2018-07-07T18:28:46.046Z,2.40
2018-07-07T18:31:14.112Z,2.30
2018-07-07T18:33:42.349Z,2.60
2018-07-07T18:36:10.428Z,2.40
2018-07-07T18:38:38.487Z,2.40
2018-07-07T18:41:06.605Z,2.67
2018-07-07T18:43:34.643Z,3.33
2018-07-07T18:46:02.658Z,2.67
2018-07-07T18:48:30.720Z,2.70
2018-07-07T18:50:58.795Z,2.63
2018-07-07T18:53:26.921Z,2.63
2018-07-07T18:55:54.971Z,2.57
2018-07-07T18:58:23.016Z,2.30
2018-07-07T19:00:51.093Z,2.60
2018-07-07T19:03:19.284Z,2.73
2018-07-07T19:05:47.627Z,2.70
2018-07-07T19:08:15.719Z,2.30
2018-07-07T19:10:43.794Z,2.80
2018-07-07T19:13:11.772Z,2.80
2018-07-07T19:15:42.633Z,2.97
2018-07-07T19:18:10.682Z,3.43
2018-07-07T19:20:44.521Z,3.13
2018-07-07T19:23:17.956Z,2.73
2018-07-07T19:25:51.485Z,2.87
2018-07-07T19:28:19.624Z,3.00
2018-07-07T19:30:47.752Z,2.50
2018-07-07T19:33:21.335Z,3.10
2018-07-07T19:35:55.059Z,2.33
2018-07-07T19:38:26.462Z,3.00
2018-07-07T19:40:54.516Z,2.50
2018-07-07T19:43:22.632Z,3.77
2018-07-07T19:45:50.682Z,2.57
2018-07-07T19:48:18.799Z,3.30
2018-07-07T19:50:46.872Z,2.60
2018-07-07T19:53:14.988Z,2.63
2018-07-07T19:55:42.967Z,2.77
2018-07-07T19:58:11.059Z,3.03
2018-07-07T20:00:39.078Z,3.20
2018-07-07T20:03:07.126Z,3.20
2018-07-07T20:05:35.165Z,3.53
2018-07-07T20:08:03.268Z,2.97
2018-07-07T20:10:31.278Z,3.00
2018-07-07T20:12:59.302Z,3.80
2018-07-07T20:16:33.800Z,3.77
2018-07-07T20:19:12.530Z,3.93
2018-07-07T20:21:52.229Z,4.17
2018-07-07T20:24:22.595Z,3.40
2018-07-07T20:26:56.087Z,3.30
2018-07-07T20:29:24.366Z,3.17
2018-07-07T20:31:53.935Z,3.40
2018-07-07T20:34:24.371Z,3.23
2018-07-07T20:36:52.991Z,3.37
2018-07-07T20:39:21.263Z,3.00
2018-07-07T20:41:50.030Z,3.43
2018-07-07T20:44:18.427Z,2.97
2018-07-07T20:46:46.714Z,3.27
2018-07-07T20:49:14.671Z,3.10
2018-07-07T20:51:42.674Z,3.60
2018-07-07T20:54:10.712Z,3.10
2018-07-07T20:56:38.760Z,3.23
2018-07-07T20:59:06.810Z,2.90
2018-07-07T21:01:34.904Z,2.90
2018-07-07T21:04:02.958Z,3.03
2018-07-07T21:06:32.309Z,2.93
2018-07-07T21:09:00.360Z,3.13
2018-07-07T21:11:28.420Z,2.80
2018-07-07T21:13:57.190Z,3.40
2018-07-07T21:16:25.212Z,3.60
2018-07-07T21:18:53.695Z,3.47
2018-07-07T21:21:21.832Z,3.00
2018-07-07T21:23:49.985Z,3.27
2018-07-07T21:26:18.112Z,3.00
2018-07-07T21:28:46.089Z,3.07
2018-07-07T21:31:14.106Z,3.20
2018-07-07T21:33:42.203Z,3.07
2018-07-07T21:36:10.201Z,2.73
2018-07-07T21:38:41.544Z,3.50
2018-07-07T21:41:09.525Z,3.10
2018-07-07T21:43:37.588Z,3.13
2018-07-07T21:46:05.701Z,3.53
2018-07-07T21:48:33.678Z,2.87
2018-07-07T21:51:01.750Z,2.90
2018-07-07T21:53:29.761Z,3.30
2018-07-07T21:55:57.884Z,3.00
2018-07-07T21:58:26.125Z,3.57
2018-07-07T22:01:05.335Z,3.03
2018-07-07T22:03:38.878Z,3.37
2018-07-07T22:06:07.917Z,3.53
2018-07-07T22:08:36.243Z,3.93
2018-07-07T22:11:04.677Z,3.27
2018-07-07T22:13:32.832Z,2.50
2018-07-07T22:16:00.912Z,3.50
2018-07-07T22:18:28.931Z,3.30
2018-07-07T22:21:02.529Z,2.87
2018-07-07T22:23:30.580Z,3.17
2018-07-07T22:25:58.554Z,3.10
2018-07-07T22:28:26.646Z,3.20
2018-07-07T22:30:54.779Z,3.37
2018-07-07T22:33:25.298Z,3.20
2018-07-07T22:35:59.212Z,3.30
2018-07-07T22:38:32.678Z,3.27
2018-07-07T22:41:02.363Z,3.23
2018-07-07T22:43:30.904Z,3.83
2018-07-07T22:46:00.436Z,3.70
2018-07-07T22:48:29.259Z,3.50
2018-07-07T22:50:57.223Z,3.60
2018-07-07T22:53:25.435Z,3.23
2018-07-07T22:55:53.490Z,2.93
2018-07-07T22:58:21.508Z,3.30
2018-07-07T23:00:49.552Z,3.57
2018-07-07T23:03:17.595Z,3.03
2018-07-07T23:05:45.584Z,3.83
2018-07-07T23:08:13.696Z,3.17
2018-07-07T23:10:41.777Z,4.00
2018-07-07T23:13:10.071Z,3.40
2018-07-07T23:15:38.112Z,3.00
2018-07-07T23:18:06.156Z,3.27
2018-07-07T23:20:34.207Z,3.50
2018-07-07T23:23:02.277Z,3.37
2018-07-07T23:25:30.414Z,3.20
2018-07-07T23:27:58.370Z,3.30
2018-07-07T23:30:26.408Z,2.80
2018-07-07T23:32:54.393Z,3.20
2018-07-07T23:35:22.435Z,3.40
2018-07-07T23:37:50.600Z,3.40
2018-07-07T23:40:18.542Z,3.53
2018-07-07T23:42:46.561Z,2.80
2018-07-07T23:45:14.687Z,3.67
2018-07-07T23:47:42.732Z,3.17
2018-07-07T23:50:10.789Z,3.43
2018-07-07T23:52:38.859Z,3.93
2018-07-07T23:55:06.872Z,3.57
2018-07-07T23:57:34.907Z,3.10
